Heron Island, Queensland

12:09 AM EST on August 01, 2014 (GMT +1000)
Gladstone (YGLA) Elev 62 ft | 23.87 °S, 151.22 °E | Change Station

Current weather conditions updated 1 hour ago

Overcast
Overcast
63 °F
Feels Like 63 °F
N
5
Wind Variable Wind from SSW

Today is forecast to be nearly the same temperature as yesterday.

Today
High -- | Low -- °F
--% Chance of Precip.
Yesterday
High -- | Low -- °F
Precip. -- in
6:27 AM 5:30 PM
Waxing Crescent, 18% visible
Pressure 30.06 in
Visibility 6.2 miles
Clouds Overcast 8400 ft
Dew Point 61 °F
Humidity 94%
Rainfall 0.00 in
Snow Depth Not available.
UV 0 out of 12
Pollen Not available.
Air Quality Not available.
Flu Activity Not available.
METAR YGLA 311300Z AUTO 21004KT 9999 // OVC084 17/16 Q1018

More Conditions Fewer Conditions

Pressure 30.06 in
Visibility 6.2 miles
Clouds Overcast 8400 ft
Dew Point 61 °F
Humidity 94%
Rainfall 0.00 in
Snow Depth Not available.
UV 0 out of 12
Pollen Not available.
Air Quality Not available.
Flu Activity Not available.
METAR YGLA 311300Z AUTO 21004KT 9999 // OVC084 17/16 Q1018

More Conditions Fewer Conditions

10-Day Weather Forecast

Almanac

Astronomy

Aug. 01, 2014 Rise Set
Actual Time 6:27 AM EST 5:30 PM EST
Civil Twilight 6:03 AM EST 5:53 PM EST
Nautical Twilight 5:36 AM EST 6:21 PM EST
Astronomical Twilight 5:09 AM EST 6:47 PM EST
Moon 9:20 AM EST (8/1) 9:55 PM EST (8/1)
Length of Visible Light 11h 50m
Length of Day
11h 02m
Tomorrow will be 0m 58s longer.
Waxing Crescent, 18% of the Moon is Illuminated
Jul 31
Waxing Crescent
Aug 3
First Quarter
Aug 10
Full
Aug 17
Last Quarter
Aug 25
New

Yesterday's Extremes

Country Highs Country Lows

Community

WunderPhotos

Upload Photos

1,739,329 photos uploaded!

Nearby

Snow Depth

Not available.

Earthquake Activity

City Distance Mag. Time & Date
No recent earthquake activity has been reported nearby.
Minimum magnitude displayed is 2.5.

Coastal Water Temperatures

Place Temperature
No Stations Reporting

Nearby Weather Stations

There are no personal weather stations in this area.